Midland, Texas
Current Conditions -  °F | °C
As of 6:35 AM on Sunday 23 Nov 2014 (Local Time) from KMDD Reporting Station
Clear Clear  
Wind Chill: 11°   Ceiling: Unl
Heat Index: 11°   Visibility: 10mi
Dew Point: -1°   Wind: 10mph
Humidity: 41%   Direction: 280°W
Pressure: 29.66"   Gusts: NA
Location:  32°N, 102.07°W
Report Text: KMDD 231235Z AUTO 28009KT 10SM CLR 12/M01 A2966 RMK AO2 T01151013
Loading
Personal Weather Stations






























Interactive Weather Map New forecast layout! Learn more

10-Day Weather Forecast

Advertisements
Track Severe Weather on mobile